createdAt,value
2019-02-04T00:02:36.570Z,11.83
2019-02-04T00:06:44.847Z,14.23
2019-02-04T00:10:53.139Z,11.50
2019-02-04T00:15:01.348Z,10.03
2019-02-04T00:19:09.645Z,11.43
2019-02-04T00:23:18.008Z,14.60
2019-02-04T00:27:26.322Z,15.50
2019-02-04T00:31:34.607Z,14.77
2019-02-04T00:35:42.877Z,25.23
2019-02-04T00:39:51.144Z,13.07
2019-02-04T00:43:59.436Z,20.20
2019-02-04T00:48:07.725Z,15.83
2019-02-04T00:52:16.027Z,16.63
2019-02-04T00:56:24.296Z,14.30
2019-02-04T01:00:32.692Z,17.90
2019-02-04T01:04:46.007Z,28.67
2019-02-04T01:08:54.897Z,17.40
2019-02-04T01:13:03.167Z,18.63
2019-02-04T01:17:11.469Z,17.17
2019-02-04T01:21:19.490Z,15.60
2019-02-04T01:25:27.783Z,14.30
2019-02-04T01:29:36.103Z,15.70
2019-02-04T01:33:44.444Z,17.03
2019-02-04T01:37:52.473Z,15.57
2019-02-04T01:42:00.759Z,16.37
2019-02-04T01:46:09.075Z,21.20
2019-02-04T01:50:19.016Z,15.50
2019-02-04T01:54:27.297Z,15.17
2019-02-04T01:58:35.550Z,15.90
2019-02-04T02:02:43.862Z,15.40
2019-02-04T02:06:52.149Z,14.17
2019-02-04T02:11:00.426Z,20.43
2019-02-04T02:15:08.719Z,22.67
2019-02-04T02:19:17.042Z,17.60
2019-02-04T02:23:25.320Z,18.93
2019-02-04T02:27:33.661Z,22.30
2019-02-04T02:31:41.669Z,18.07
2019-02-04T02:35:49.925Z,20.67
2019-02-04T02:39:58.142Z,18.47
2019-02-04T02:44:06.446Z,22.13
2019-02-04T02:48:14.799Z,14.73
2019-02-04T02:52:23.084Z,16.20
2019-02-04T02:56:31.407Z,19.37
2019-02-04T03:00:39.652Z,21.17
2019-02-04T03:04:47.892Z,19.73
2019-02-04T03:08:56.117Z,21.55
2019-02-04T03:13:04.341Z,22.30
2019-02-04T03:17:12.582Z,28.00
2019-02-04T03:21:20.843Z,23.10
2019-02-04T03:25:29.141Z,21.73
2019-02-04T03:29:37.381Z,27.83
2019-02-04T03:33:45.655Z,23.80
2019-02-04T03:37:53.943Z,20.40
2019-02-04T03:42:02.204Z,20.40
2019-02-04T03:46:13.131Z,25.87
2019-02-04T03:50:24.606Z,22.13
2019-02-04T03:54:33.100Z,21.50
2019-02-04T03:58:41.396Z,22.53
2019-02-04T04:02:49.624Z,24.73
2019-02-04T04:06:57.863Z,21.83
2019-02-04T04:11:06.090Z,24.73
2019-02-04T04:15:14.401Z,25.33
2019-02-04T04:19:22.648Z,23.23
2019-02-04T04:23:30.892Z,26.50
2019-02-04T04:27:39.168Z,26.03
2019-02-04T04:31:47.411Z,30.73
2019-02-04T04:35:55.680Z,25.40
2019-02-04T04:40:04.369Z,26.47
2019-02-04T04:44:12.398Z,27.57
2019-02-04T04:48:26.762Z,24.10
2019-02-04T04:52:29.006Z,27.07
2019-02-04T04:56:37.237Z,26.23
2019-02-04T05:00:45.459Z,27.23
2019-02-04T05:04:53.682Z,37.60
2019-02-04T05:09:01.920Z,23.50
2019-02-04T05:13:10.183Z,32.17
2019-02-04T05:17:18.378Z,19.80
2019-02-04T05:21:26.617Z,24.27
2019-02-04T05:25:34.862Z,21.27
2019-02-04T05:29:43.140Z,26.80
2019-02-04T05:33:51.337Z,23.97
2019-02-04T05:37:59.552Z,27.43
2019-02-04T05:42:07.805Z,26.83
2019-02-04T05:46:16.047Z,27.23
2019-02-04T05:50:24.257Z,26.00
2019-02-04T05:54:32.487Z,28.43
2019-02-04T05:58:40.709Z,52.53
2019-02-04T06:02:48.926Z,21.83
2019-02-04T06:06:57.142Z,26.40
2019-02-04T06:11:05.406Z,23.57
2019-02-04T06:15:13.668Z,20.10
2019-02-04T06:19:21.896Z,22.23
2019-02-04T06:23:30.113Z,19.37
2019-02-04T06:27:38.314Z,22.60
2019-02-04T06:31:46.603Z,22.63
2019-02-04T06:35:54.775Z,22.07
2019-02-04T06:40:03.026Z,21.87
2019-02-04T06:44:11.238Z,24.20
2019-02-04T06:48:19.464Z,22.90
2019-02-04T06:52:27.691Z,24.47
2019-02-04T06:56:36.189Z,24.93
2019-02-04T07:00:44.247Z,21.37
2019-02-04T07:04:52.459Z,20.37
2019-02-04T07:09:00.693Z,17.67
2019-02-04T07:13:08.984Z,25.32
2019-02-04T07:17:17.219Z,27.90
2019-02-04T07:21:25.455Z,21.10
2019-02-04T07:25:33.685Z,25.40
2019-02-04T07:29:41.927Z,21.40
2019-02-04T07:33:50.179Z,22.90
2019-02-04T07:37:58.442Z,24.00
2019-02-04T07:42:06.713Z,24.00
2019-02-04T07:46:14.966Z,26.23
2019-02-04T07:50:23.222Z,22.13
2019-02-04T07:54:31.450Z,24.80
2019-02-04T07:58:39.713Z,24.37
2019-02-04T08:02:47.964Z,25.57
2019-02-04T08:06:56.229Z,28.87
2019-02-04T08:11:04.449Z,23.67
2019-02-04T08:15:16.505Z,24.10
2019-02-04T08:19:30.558Z,27.77
2019-02-04T08:23:38.812Z,29.93
2019-02-04T08:27:47.001Z,24.97
2019-02-04T08:31:55.279Z,20.90
2019-02-04T08:36:03.548Z,22.27
2019-02-04T08:40:11.860Z,25.83
2019-02-04T08:44:19.945Z,22.55
2019-02-04T08:48:28.236Z,22.10
2019-02-04T08:52:36.521Z,22.00
2019-02-04T08:56:44.714Z,21.53
2019-02-04T09:00:52.978Z,21.47
2019-02-04T09:05:01.223Z,29.93
2019-02-04T09:09:09.678Z,20.93
2019-02-04T09:13:18.043Z,18.67
2019-02-04T09:17:26.294Z,24.52
2019-02-04T09:21:34.514Z,21.87
2019-02-04T09:25:42.773Z,19.20
2019-02-04T09:29:51.021Z,23.40
2019-02-04T09:33:59.295Z,19.57
2019-02-04T09:38:07.535Z,19.70
2019-02-04T09:42:15.747Z,28.63
2019-02-04T09:46:24.033Z,21.37
2019-02-04T09:50:34.147Z,24.00
2019-02-04T09:54:42.415Z,22.23
2019-02-04T09:58:50.655Z,17.80
2019-02-04T10:02:58.903Z,17.90
2019-02-04T10:07:07.141Z,26.33
2019-02-04T10:11:15.489Z,25.60
2019-02-04T10:15:25.942Z,26.20
2019-02-04T10:19:34.191Z,25.27
2019-02-04T10:23:42.534Z,21.83
2019-02-04T10:27:50.711Z,22.27
2019-02-04T10:31:59.001Z,26.40
2019-02-04T10:36:07.240Z,22.33
2019-02-04T10:40:18.523Z,22.77
2019-02-04T10:44:26.821Z,20.37
2019-02-04T10:48:35.113Z,19.80
2019-02-04T10:52:43.331Z,20.70
2019-02-04T10:56:51.576Z,20.60
2019-02-04T11:00:59.837Z,23.83
2019-02-04T11:05:10.185Z,21.13
2019-02-04T11:09:18.438Z,25.40
2019-02-04T11:13:26.722Z,20.53
2019-02-04T11:17:35.054Z,20.23
2019-02-04T11:21:43.308Z,45.53
2019-02-04T11:25:51.585Z,23.53
2019-02-04T11:29:59.887Z,20.37
2019-02-04T11:34:08.174Z,18.00
2019-02-04T11:38:16.446Z,16.73
2019-02-04T11:42:24.733Z,17.50
2019-02-04T11:46:32.940Z,16.40
2019-02-04T11:50:41.171Z,18.85
2019-02-04T11:54:49.440Z,17.77
2019-02-04T11:58:57.686Z,16.07
2019-02-04T12:03:06.429Z,16.43
2019-02-04T12:07:14.724Z,14.67
2019-02-04T12:11:23.393Z,15.10
2019-02-04T12:15:31.641Z,17.93
2019-02-04T12:19:39.890Z,13.40
2019-02-04T12:23:48.155Z,13.47
2019-02-04T12:27:56.397Z,14.57
2019-02-04T12:32:04.634Z,10.63
2019-02-04T12:36:12.900Z,19.03
2019-02-04T12:40:21.124Z,11.53
2019-02-04T12:44:29.419Z,8.33
2019-02-04T12:48:37.660Z,8.23
2019-02-04T12:52:45.913Z,13.70
2019-02-04T12:56:54.127Z,7.33
2019-02-04T13:01:02.357Z,12.30
2019-02-04T13:05:13.315Z,11.27
2019-02-04T13:09:21.571Z,7.40
2019-02-04T13:13:29.817Z,8.83
2019-02-04T13:17:38.036Z,8.07
2019-02-04T13:21:46.268Z,8.90
2019-02-04T13:25:54.553Z,9.50
2019-02-04T13:30:02.792Z,7.43
2019-02-04T13:34:11.053Z,8.53
2019-02-04T13:38:19.296Z,9.43
2019-02-04T13:42:27.583Z,7.60
2019-02-04T13:46:35.844Z,11.60
2019-02-04T13:50:44.089Z,7.33
2019-02-04T13:54:52.439Z,11.20
2019-02-04T13:59:00.673Z,9.47
2019-02-04T14:03:08.891Z,8.40
2019-02-04T14:07:17.124Z,7.87
2019-02-04T14:11:25.341Z,9.70
2019-02-04T14:15:35.599Z,6.40
2019-02-04T14:19:41.961Z,7.30
2019-02-04T14:23:50.227Z,7.53
2019-02-04T14:27:58.483Z,11.77
2019-02-04T14:32:06.747Z,8.70
2019-02-04T14:36:14.961Z,9.57
2019-02-04T14:40:23.391Z,6.20
2019-02-04T14:44:38.550Z,5.70
2019-02-04T14:49:04.882Z,7.33
2019-02-04T14:53:23.314Z,6.33
2019-02-04T14:57:41.734Z,6.33
2019-02-04T15:02:06.821Z,5.57
2019-02-04T15:06:52.918Z,6.27
2019-02-04T15:11:23.526Z,11.30
2019-02-04T15:15:43.691Z,8.33
2019-02-04T15:22:07.686Z,7.60
2019-02-04T15:28:30.943Z,6.90
2019-02-04T15:32:49.854Z,6.80
2019-02-04T15:37:09.225Z,7.40
2019-02-04T15:41:32.952Z,13.50
2019-02-04T15:45:54.649Z,6.30
2019-02-04T15:50:15.974Z,8.40
2019-02-04T15:54:24.219Z,8.20
2019-02-04T15:58:32.457Z,9.97
2019-02-04T16:02:40.750Z,14.90
2019-02-04T16:06:48.976Z,13.17
2019-02-04T16:10:57.206Z,10.17
2019-02-04T16:15:06.437Z,15.33
2019-02-04T16:19:14.680Z,5.93
2019-02-04T16:23:22.916Z,8.23
2019-02-04T16:27:31.144Z,6.80
2019-02-04T16:31:39.379Z,6.70
2019-02-04T16:35:47.605Z,6.10
2019-02-04T16:39:55.826Z,6.70
2019-02-04T16:44:04.146Z,5.27
2019-02-04T16:48:12.346Z,6.60
2019-02-04T16:52:20.550Z,7.20
2019-02-04T16:56:28.838Z,6.33
2019-02-04T17:00:37.054Z,9.70
2019-02-04T17:04:45.296Z,7.67
2019-02-04T17:08:53.533Z,6.93
2019-02-04T17:13:01.875Z,6.87
2019-02-04T17:17:10.095Z,5.43
2019-02-04T17:21:18.340Z,5.87
2019-02-04T17:25:26.528Z,6.87
2019-02-04T17:29:34.759Z,8.33
2019-02-04T17:33:42.993Z,5.87
2019-02-04T17:37:51.256Z,6.10
2019-02-04T17:41:59.450Z,5.85
2019-02-04T17:46:07.699Z,5.70
2019-02-04T17:50:17.329Z,6.20
2019-02-04T17:54:25.560Z,4.93
2019-02-04T17:58:33.838Z,4.97
2019-02-04T18:02:42.071Z,5.10
2019-02-04T18:06:50.322Z,6.27
2019-02-04T18:11:00.125Z,3.70
2019-02-04T18:15:07.122Z,5.87
2019-02-04T18:19:15.421Z,5.03
2019-02-04T18:23:23.633Z,7.77
2019-02-04T18:27:31.875Z,8.10
2019-02-04T18:31:40.272Z,7.67
2019-02-04T18:35:48.485Z,6.30
2019-02-04T18:39:56.753Z,8.63
2019-02-04T18:44:05.065Z,11.40
2019-02-04T18:48:13.354Z,8.57
2019-02-04T18:52:21.597Z,7.40
2019-02-04T18:56:29.806Z,10.13
2019-02-04T19:00:38.058Z,9.83
2019-02-04T19:04:46.261Z,11.45
2019-02-04T19:08:54.455Z,8.97
2019-02-04T19:13:02.695Z,10.53
2019-02-04T19:17:10.926Z,8.40
2019-02-04T19:21:19.202Z,6.97
2019-02-04T19:25:27.454Z,7.83
2019-02-04T19:29:35.649Z,6.67
2019-02-04T19:33:43.927Z,5.23
2019-02-04T19:37:52.191Z,7.30
2019-02-04T19:42:00.409Z,5.20
2019-02-04T19:46:08.673Z,8.17
2019-02-04T19:50:19.617Z,7.50
2019-02-04T19:54:27.878Z,11.40
2019-02-04T19:58:36.116Z,5.80
2019-02-04T20:02:44.435Z,4.33
2019-02-04T20:06:52.654Z,5.00
2019-02-04T20:11:02.708Z,5.70
2019-02-04T20:15:12.217Z,5.40
2019-02-04T20:19:20.649Z,7.50
2019-02-04T20:23:28.886Z,5.33
2019-02-04T20:27:37.154Z,6.50
2019-02-04T20:31:45.370Z,6.30
2019-02-04T20:35:53.642Z,6.05
2019-02-04T20:40:01.888Z,5.93
2019-02-04T20:44:10.093Z,6.47
2019-02-04T20:48:18.357Z,5.07
2019-02-04T20:52:26.694Z,5.50
2019-02-04T20:56:34.900Z,6.87
2019-02-04T21:00:43.126Z,5.33
2019-02-04T21:04:51.352Z,5.50
2019-02-04T21:08:59.641Z,5.70
2019-02-04T21:13:07.892Z,5.53
2019-02-04T21:17:16.105Z,4.83
2019-02-04T21:21:24.352Z,6.00
2019-02-04T21:25:32.610Z,6.87
2019-02-04T21:29:41.268Z,6.80
2019-02-04T21:33:49.525Z,6.83
2019-02-04T21:37:57.777Z,5.87
2019-02-04T21:42:06.033Z,4.93
2019-02-04T21:46:14.242Z,8.90
2019-02-04T21:50:23.610Z,15.60
2019-02-04T21:54:31.839Z,10.63
2019-02-04T21:58:40.074Z,6.30
2019-02-04T22:02:48.371Z,6.30
2019-02-04T22:06:56.715Z,7.50
2019-02-04T22:11:05.017Z,6.00
2019-02-04T22:15:13.288Z,6.20
2019-02-04T22:19:22.272Z,6.93
2019-02-04T22:23:30.509Z,5.50
2019-02-04T22:27:38.729Z,6.27
2019-02-04T22:31:47.020Z,6.70
2019-02-04T22:35:55.281Z,8.63
2019-02-04T22:40:03.547Z,5.70
2019-02-04T22:44:12.504Z,6.90
2019-02-04T22:48:20.722Z,7.07
2019-02-04T22:52:28.929Z,7.00
2019-02-04T22:56:37.158Z,5.23
2019-02-04T23:00:54.830Z,7.53
2019-02-04T23:05:03.002Z,7.30
2019-02-04T23:09:11.245Z,7.30
2019-02-04T23:13:19.465Z,7.63
2019-02-04T23:17:27.698Z,6.20
2019-02-04T23:21:35.915Z,6.67
2019-02-04T23:25:44.394Z,6.97
2019-02-04T23:29:52.693Z,9.78
2019-02-04T23:34:00.959Z,10.80
2019-02-04T23:38:09.245Z,10.23
2019-02-04T23:42:17.434Z,7.00
2019-02-04T23:46:25.679Z,7.92
2019-02-04T23:50:33.906Z,10.40
2019-02-04T23:54:42.122Z,7.23
2019-02-04T23:58:50.404Z,7.00
